createdAt,value
2017-11-24T00:02:26.135Z,88.20
2017-11-24T00:04:54.468Z,88.30
2017-11-24T00:07:21.926Z,88.20
2017-11-24T00:09:49.487Z,88.10
2017-11-24T00:12:16.945Z,88.10
2017-11-24T00:14:44.474Z,88.10
2017-11-24T00:17:11.954Z,88.00
2017-11-24T00:19:40.261Z,88.10
2017-11-24T00:22:07.829Z,88.20
2017-11-24T00:24:35.307Z,86.90
2017-11-24T00:27:02.876Z,87.80
2017-11-24T00:29:30.534Z,87.40
2017-11-24T00:31:58.261Z,87.40
2017-11-24T00:34:26.526Z,88.80
2017-11-24T00:36:54.161Z,88.30
2017-11-24T00:39:21.698Z,88.10
2017-11-24T00:41:49.290Z,87.90
2017-11-24T00:44:16.766Z,88.30
2017-11-24T00:46:44.500Z,88.00
2017-11-24T00:49:11.967Z,88.50
2017-11-24T00:51:39.467Z,88.70
2017-11-24T00:56:41.707Z,88.70
2017-11-24T00:59:09.194Z,89.30
2017-11-24T01:01:38.230Z,89.40
2017-11-24T01:04:05.708Z,89.40
2017-11-24T01:06:33.174Z,89.30
2017-11-24T01:09:00.703Z,89.40
2017-11-24T01:11:28.179Z,89.60
2017-11-24T01:13:55.657Z,89.60
2017-11-24T01:16:24.766Z,89.70
2017-11-24T01:18:52.252Z,89.70
2017-11-24T01:21:19.705Z,89.90
2017-11-24T01:23:47.269Z,90.00
2017-11-24T01:26:14.746Z,90.30
2017-11-24T01:28:42.427Z,90.30
2017-11-24T01:31:09.981Z,90.30
2017-11-24T01:33:37.465Z,90.70
2017-11-24T01:36:05.187Z,91.30
2017-11-24T01:38:32.647Z,91.80
2017-11-24T01:41:00.132Z,92.50
2017-11-24T01:43:28.457Z,92.90
2017-11-24T01:45:55.948Z,92.90
2017-11-24T01:48:23.497Z,93.10
2017-11-24T01:50:50.979Z,93.50
2017-11-24T01:53:18.461Z,93.70
2017-11-24T01:55:46.710Z,94.10
2017-11-24T01:58:14.236Z,93.90
2017-11-24T02:00:41.717Z,93.90
2017-11-24T02:03:09.746Z,93.90
2017-11-24T02:05:37.971Z,93.80
2017-11-24T02:08:05.459Z,93.70
2017-11-24T02:10:33.699Z,93.70
2017-11-24T02:13:01.179Z,93.70
2017-11-24T02:15:28.748Z,93.70
2017-11-24T02:17:57.003Z,93.60
2017-11-24T02:20:24.466Z,93.50
2017-11-24T02:22:51.941Z,93.30
2017-11-24T02:25:20.284Z,93.80
2017-11-24T02:27:47.766Z,93.80
2017-11-24T02:30:15.243Z,93.40
2017-11-24T02:32:43.493Z,94.10
2017-11-24T02:35:10.960Z,94.10
2017-11-24T02:37:39.281Z,93.90
2017-11-24T02:40:06.759Z,94.20
2017-11-24T02:42:34.217Z,94.20
2017-11-24T02:45:01.789Z,94.30
2017-11-24T02:47:30.776Z,95.00
2017-11-24T02:49:58.228Z,95.00
2017-11-24T02:52:25.818Z,94.60
2017-11-24T02:54:53.294Z,94.60
2017-11-24T02:57:21.519Z,95.30
2017-11-24T02:59:48.998Z,94.90
2017-11-24T03:02:16.473Z,95.10
2017-11-24T03:04:44.730Z,95.60
2017-11-24T03:07:12.310Z,95.60
2017-11-24T03:09:41.194Z,96.00
2017-11-24T03:12:09.560Z,96.10
2017-11-24T03:14:37.215Z,96.00
2017-11-24T03:17:04.725Z,95.90
2017-11-24T03:19:32.194Z,95.80
2017-11-24T03:21:59.702Z,95.70
2017-11-24T03:24:27.974Z,95.90
2017-11-24T03:26:55.522Z,95.90
2017-11-24T03:29:23.192Z,96.00
2017-11-24T03:31:51.485Z,95.50
2017-11-24T03:34:19.793Z,95.70
2017-11-24T03:36:47.314Z,95.70
2017-11-24T03:39:15.571Z,95.80
2017-11-24T03:41:43.101Z,95.80
2017-11-24T03:44:10.587Z,95.70
2017-11-24T03:46:38.920Z,96.20
2017-11-24T03:49:06.377Z,96.30
2017-11-24T03:51:33.854Z,96.40
2017-11-24T03:54:01.349Z,96.40
2017-11-24T03:56:29.597Z,97.20
2017-11-24T03:58:57.186Z,97.10
2017-11-24T04:01:25.574Z,97.40
2017-11-24T04:03:53.818Z,97.40
2017-11-24T04:06:21.293Z,97.40
2017-11-24T04:08:49.548Z,96.90
2017-11-24T04:11:17.058Z,96.90
2017-11-24T04:13:44.533Z,96.70
2017-11-24T04:16:12.014Z,96.60
2017-11-24T04:18:39.486Z,96.30
2017-11-24T04:21:06.984Z,96.30
2017-11-24T04:23:34.457Z,96.30
2017-11-24T04:26:02.037Z,97.10
2017-11-24T04:28:29.507Z,96.60
2017-11-24T04:30:57.061Z,96.60
2017-11-24T04:33:24.539Z,96.30
2017-11-24T04:35:52.767Z,97.20
2017-11-24T04:38:20.289Z,96.90
2017-11-24T04:40:48.566Z,96.80
2017-11-24T04:43:16.798Z,96.90
2017-11-24T04:45:44.276Z,96.90
2017-11-24T04:48:11.750Z,96.60
2017-11-24T04:50:40.013Z,97.60
2017-11-24T04:53:08.238Z,97.10
2017-11-24T04:55:35.738Z,97.10
2017-11-24T04:58:03.277Z,96.80
2017-11-24T05:00:30.756Z,97.60
2017-11-24T05:02:58.225Z,96.90
2017-11-24T05:05:26.462Z,97.40
2017-11-24T05:07:53.979Z,97.30
2017-11-24T05:10:21.694Z,97.40
2017-11-24T05:12:49.403Z,97.50
2017-11-24T05:15:16.858Z,97.70
2017-11-24T05:17:44.338Z,97.10
2017-11-24T05:20:11.804Z,97.10
2017-11-24T05:22:39.285Z,97.00
2017-11-24T05:25:06.757Z,97.00
2017-11-24T05:27:34.336Z,97.20
2017-11-24T05:30:02.554Z,97.40
2017-11-24T05:32:30.042Z,97.10
2017-11-24T05:34:57.515Z,97.10
2017-11-24T05:37:25.765Z,97.20
2017-11-24T05:39:53.225Z,97.20
2017-11-24T05:42:20.750Z,97.20
2017-11-24T05:44:48.324Z,97.00
2017-11-24T05:47:15.794Z,96.50
2017-11-24T05:49:43.256Z,96.40
2017-11-24T05:52:10.742Z,96.60
2017-11-24T05:54:38.971Z,96.70
2017-11-24T05:57:06.443Z,96.70
2017-11-24T05:59:33.939Z,96.40
2017-11-24T06:02:01.398Z,96.70
2017-11-24T06:04:28.911Z,96.90
2017-11-24T06:06:56.380Z,96.70
2017-11-24T06:09:23.865Z,96.70
2017-11-24T06:11:52.089Z,96.80
2017-11-24T06:14:19.568Z,96.80
2017-11-24T06:16:47.027Z,97.00
2017-11-24T06:19:14.573Z,97.00
2017-11-24T06:21:42.030Z,97.00
2017-11-24T06:24:09.661Z,97.10
2017-11-24T06:26:37.129Z,97.00
2017-11-24T06:29:04.584Z,97.00
2017-11-24T06:31:32.094Z,97.20
2017-11-24T06:34:00.333Z,96.80
2017-11-24T06:36:27.823Z,96.70
2017-11-24T06:38:56.062Z,96.90
2017-11-24T06:41:23.575Z,96.90
2017-11-24T06:43:51.078Z,97.00
2017-11-24T06:46:18.757Z,97.20
2017-11-24T06:48:46.209Z,97.10
2017-11-24T06:51:13.676Z,97.10
2017-11-24T06:53:41.188Z,97.00
2017-11-24T06:56:08.633Z,97.00
2017-11-24T06:58:36.202Z,97.10
2017-11-24T07:01:03.669Z,97.20
2017-11-24T07:03:31.271Z,96.90
2017-11-24T07:05:59.490Z,96.80
2017-11-24T07:08:27.067Z,96.70
2017-11-24T07:10:55.034Z,96.80
2017-11-24T07:13:22.504Z,96.80
2017-11-24T07:15:49.985Z,96.80
2017-11-24T07:18:17.491Z,97.10
2017-11-24T07:20:44.958Z,97.00
2017-11-24T07:23:12.430Z,97.00
2017-11-24T07:25:40.328Z,97.00
2017-11-24T07:28:07.780Z,97.00
2017-11-24T07:30:35.409Z,97.00
2017-11-24T07:33:02.867Z,96.70
2017-11-24T07:35:30.324Z,96.80
2017-11-24T07:37:57.804Z,96.90
2017-11-24T07:40:26.053Z,97.20
2017-11-24T07:42:53.527Z,97.20
2017-11-24T07:45:21.038Z,97.40
2017-11-24T07:47:48.524Z,97.60
2017-11-24T07:50:16.119Z,97.50
2017-11-24T07:52:44.365Z,97.30
2017-11-24T07:55:11.876Z,97.30
2017-11-24T07:57:40.103Z,97.30
2017-11-24T08:00:07.583Z,97.30
2017-11-24T08:02:36.103Z,97.30
2017-11-24T08:05:03.570Z,97.00
2017-11-24T08:07:31.051Z,96.80
2017-11-24T08:09:58.633Z,96.20
2017-11-24T08:12:26.932Z,96.50
2017-11-24T08:14:54.412Z,96.40
2017-11-24T08:17:22.063Z,96.50
2017-11-24T08:19:49.533Z,96.30
2017-11-24T08:22:17.008Z,96.30
2017-11-24T08:24:44.501Z,96.30
2017-11-24T08:27:11.958Z,96.40
2017-11-24T08:29:39.466Z,96.70
2017-11-24T08:32:07.126Z,96.70
2017-11-24T08:34:34.688Z,96.70
2017-11-24T08:37:02.158Z,96.80
2017-11-24T08:39:29.625Z,96.90
2017-11-24T08:41:57.224Z,96.80
2017-11-24T08:44:25.601Z,96.80
2017-11-24T08:46:59.491Z,96.60
2017-11-24T08:49:32.598Z,96.60
2017-11-24T08:52:00.855Z,96.30
2017-11-24T08:54:29.262Z,96.20
2017-11-24T08:56:56.728Z,96.20
2017-11-24T08:59:24.248Z,95.90
2017-11-24T09:01:51.725Z,95.80
2017-11-24T09:04:20.086Z,94.90
2017-11-24T09:06:47.563Z,94.90
2017-11-24T09:09:15.063Z,95.10
2017-11-24T09:11:42.931Z,95.10
2017-11-24T09:14:10.444Z,95.30
2017-11-24T09:16:38.726Z,94.70
2017-11-24T09:19:06.209Z,94.70
2017-11-24T09:21:33.702Z,94.60
2017-11-24T09:24:01.230Z,95.20
2017-11-24T09:26:29.090Z,95.40
2017-11-24T09:28:57.599Z,95.40
2017-11-24T09:31:25.130Z,95.20
2017-11-24T09:33:52.662Z,95.10
2017-11-24T09:36:20.248Z,95.40
2017-11-24T09:38:47.719Z,95.20
2017-11-24T09:41:15.223Z,94.90
2017-11-24T09:43:43.614Z,94.50
2017-11-24T09:46:11.854Z,94.50
2017-11-24T09:48:39.331Z,94.50
2017-11-24T09:51:07.596Z,94.00
2017-11-24T09:53:35.858Z,94.20
2017-11-24T09:56:03.338Z,94.30
2017-11-24T09:58:36.746Z,94.60
2017-11-24T10:01:05.071Z,94.70
2017-11-24T10:03:32.558Z,94.70
2017-11-24T10:06:00.140Z,95.20
2017-11-24T10:08:28.616Z,94.60
2017-11-24T10:10:56.251Z,94.60
2017-11-24T10:13:23.772Z,94.80
2017-11-24T10:15:51.394Z,93.50
2017-11-24T10:18:19.664Z,94.20
2017-11-24T10:20:53.415Z,93.70
2017-11-24T10:23:20.940Z,93.70
2017-11-24T10:25:49.188Z,94.00
2017-11-24T10:28:16.707Z,94.00
2017-11-24T10:30:44.201Z,93.80
2017-11-24T10:33:11.661Z,93.40
2017-11-24T10:35:39.172Z,93.90
2017-11-24T10:38:06.725Z,93.40
2017-11-24T10:40:34.195Z,93.40
2017-11-24T10:43:02.011Z,93.60
2017-11-24T10:45:29.527Z,93.60
2017-11-24T10:47:56.993Z,93.40
2017-11-24T10:50:24.550Z,93.70
2017-11-24T10:52:52.023Z,94.00
2017-11-24T10:55:19.493Z,93.50
2017-11-24T10:57:47.787Z,93.50
2017-11-24T11:00:16.035Z,93.40
2017-11-24T11:02:43.538Z,93.40
2017-11-24T11:05:11.001Z,93.50
2017-11-24T11:07:38.492Z,93.60
2017-11-24T11:10:06.074Z,93.80
2017-11-24T11:12:33.543Z,93.40
2017-11-24T11:15:03.441Z,93.40
2017-11-24T11:17:32.306Z,93.40
2017-11-24T11:20:00.041Z,93.10
2017-11-24T11:22:28.387Z,93.40
2017-11-24T11:24:56.619Z,94.00
2017-11-24T11:27:24.161Z,94.00
2017-11-24T11:29:51.645Z,93.10
2017-11-24T11:32:19.752Z,92.80
2017-11-24T11:34:48.065Z,92.80
2017-11-24T11:37:18.451Z,92.90
2017-11-24T11:39:49.011Z,92.20
2017-11-24T11:42:16.473Z,92.20
2017-11-24T11:44:44.184Z,92.00
2017-11-24T11:47:11.664Z,92.30
2017-11-24T11:49:39.906Z,91.90
2017-11-24T11:52:07.387Z,91.90
2017-11-24T11:54:35.639Z,92.60
2017-11-24T11:57:03.363Z,92.70
2017-11-24T11:59:30.837Z,93.10
2017-11-24T12:01:58.325Z,92.90
2017-11-24T12:04:25.834Z,92.60
2017-11-24T12:06:53.294Z,93.10
2017-11-24T12:09:20.760Z,92.40
2017-11-24T12:11:48.462Z,92.70
2017-11-24T12:14:15.973Z,92.60
2017-11-24T12:16:43.452Z,92.50
2017-11-24T12:19:10.938Z,92.60
2017-11-24T12:21:38.417Z,92.80
2017-11-24T12:24:05.972Z,93.00
2017-11-24T12:26:33.443Z,93.70
2017-11-24T12:29:00.982Z,93.90
2017-11-24T12:31:29.218Z,93.60
2017-11-24T12:33:56.766Z,93.60
2017-11-24T12:36:24.336Z,93.60
2017-11-24T12:38:51.817Z,93.60
2017-11-24T12:41:19.412Z,93.80
2017-11-24T12:43:46.930Z,93.90
2017-11-24T12:46:15.321Z,94.30
2017-11-24T12:48:43.579Z,94.70
2017-11-24T12:51:11.249Z,94.60
2017-11-24T12:53:38.738Z,94.20
2017-11-24T12:56:06.224Z,93.50
2017-11-24T12:58:33.744Z,93.60
2017-11-24T13:01:01.981Z,93.90
2017-11-24T13:03:29.609Z,93.90
2017-11-24T13:05:57.130Z,93.70
2017-11-24T13:08:25.510Z,93.70
2017-11-24T13:10:53.886Z,93.40
2017-11-24T13:13:22.104Z,93.50
2017-11-24T13:15:49.586Z,93.40
2017-11-24T13:18:17.109Z,93.30
2017-11-24T13:20:44.587Z,93.50
2017-11-24T13:23:12.667Z,93.60
2017-11-24T13:25:40.142Z,93.80
2017-11-24T13:28:07.816Z,94.00
2017-11-24T13:30:36.086Z,94.10
2017-11-24T13:33:03.554Z,94.10
2017-11-24T13:35:31.995Z,93.90
2017-11-24T13:37:59.657Z,93.90
2017-11-24T13:40:28.062Z,93.80
2017-11-24T13:42:55.525Z,93.80
2017-11-24T13:45:23.759Z,93.60
2017-11-24T13:47:51.313Z,93.60
2017-11-24T13:50:18.787Z,93.50
2017-11-24T13:52:46.263Z,93.00
2017-11-24T13:55:13.757Z,92.10
2017-11-24T13:57:41.826Z,92.60
2017-11-24T14:00:09.298Z,92.10
2017-11-24T14:02:36.934Z,92.30
2017-11-24T14:05:04.442Z,92.00
2017-11-24T14:07:31.929Z,92.40
2017-11-24T14:09:59.479Z,92.80
2017-11-24T14:12:26.947Z,92.10
2017-11-24T14:14:55.369Z,92.20
2017-11-24T14:17:23.069Z,92.20
2017-11-24T14:19:50.627Z,92.10
2017-11-24T14:22:18.971Z,92.30
2017-11-24T14:24:46.455Z,92.40
2017-11-24T14:27:14.105Z,92.70
2017-11-24T14:29:41.799Z,92.90
2017-11-24T14:32:10.058Z,93.00
2017-11-24T14:34:37.752Z,92.70
2017-11-24T14:37:06.003Z,92.70
2017-11-24T14:39:33.755Z,92.70
2017-11-24T14:42:01.253Z,92.50
2017-11-24T14:44:29.718Z,92.50
2017-11-24T14:46:58.096Z,92.40
2017-11-24T14:49:25.628Z,92.30
2017-11-24T14:51:53.138Z,92.20
2017-11-24T14:54:20.672Z,92.30
2017-11-24T14:56:48.923Z,92.80
2017-11-24T14:59:16.423Z,92.50
2017-11-24T15:01:43.899Z,92.30
2017-11-24T15:04:11.422Z,92.60
2017-11-24T15:06:39.717Z,92.70
2017-11-24T15:09:07.957Z,92.70
2017-11-24T15:11:35.431Z,92.70
2017-11-24T15:14:03.667Z,93.00
2017-11-24T15:16:31.137Z,93.00
2017-11-24T15:18:58.636Z,93.00
2017-11-24T15:21:26.886Z,93.20
2017-11-24T15:23:55.137Z,93.40
2017-11-24T15:26:22.671Z,93.40
2017-11-24T15:28:50.161Z,93.50
2017-11-24T15:31:17.625Z,93.70
2017-11-24T15:33:45.090Z,93.60
2017-11-24T15:36:12.585Z,93.80
2017-11-24T15:38:40.083Z,94.00
2017-11-24T15:41:07.715Z,93.90
2017-11-24T15:43:35.330Z,94.00
2017-11-24T15:46:03.565Z,94.20
2017-11-24T15:48:31.088Z,94.20
2017-11-24T15:50:58.683Z,94.30
2017-11-24T15:53:26.235Z,94.40
2017-11-24T15:55:53.763Z,94.50
2017-11-24T15:58:21.506Z,94.50
2017-11-24T16:00:49.881Z,94.30
2017-11-24T16:03:18.933Z,94.20
2017-11-24T16:05:46.419Z,94.20
2017-11-24T16:08:13.931Z,94.00
2017-11-24T16:10:42.152Z,94.20
2017-11-24T16:13:09.646Z,94.30
2017-11-24T16:15:37.906Z,94.60
2017-11-24T16:18:06.368Z,94.30
2017-11-24T16:20:33.923Z,94.40
2017-11-24T16:23:01.719Z,94.40
2017-11-24T16:25:29.967Z,94.90
2017-11-24T16:27:57.483Z,94.90
2017-11-24T16:30:24.957Z,94.80
2017-11-24T16:32:53.180Z,94.90
2017-11-24T16:35:21.453Z,95.00
2017-11-24T16:37:49.766Z,94.80
2017-11-24T16:40:18.220Z,94.70
2017-11-24T16:42:46.467Z,94.60
2017-11-24T16:45:14.714Z,95.00
2017-11-24T16:47:42.326Z,94.70
2017-11-24T16:50:10.589Z,94.70
2017-11-24T16:52:38.848Z,94.70
2017-11-24T16:55:07.110Z,94.80
2017-11-24T16:57:34.774Z,94.80
2017-11-24T17:00:02.280Z,94.60
2017-11-24T17:02:30.688Z,94.70
2017-11-24T17:04:58.400Z,94.90
2017-11-24T17:07:26.694Z,95.40
2017-11-24T17:09:54.375Z,95.40
2017-11-24T17:12:22.001Z,95.40
2017-11-24T17:14:50.266Z,95.10
2017-11-24T17:17:17.798Z,95.10
2017-11-24T17:19:45.289Z,95.10
2017-11-24T17:22:13.577Z,95.20
2017-11-24T17:24:41.844Z,95.20
2017-11-24T17:27:10.142Z,95.10
2017-11-24T17:29:37.637Z,95.10
2017-11-24T17:32:05.115Z,94.80
2017-11-24T17:34:32.599Z,94.70
2017-11-24T17:37:00.902Z,94.70
2017-11-24T17:39:28.431Z,94.70
2017-11-24T17:41:56.671Z,95.10
2017-11-24T17:44:24.261Z,95.10
2017-11-24T17:46:52.629Z,94.70
2017-11-24T17:49:20.126Z,94.70
2017-11-24T17:51:47.616Z,94.60
2017-11-24T17:54:15.076Z,94.30
2017-11-24T17:56:42.576Z,94.30
2017-11-24T17:59:10.126Z,94.40
2017-11-24T18:01:38.015Z,94.20
2017-11-24T18:04:06.933Z,94.30
2017-11-24T18:06:34.406Z,94.30
2017-11-24T18:09:01.938Z,94.60
2017-11-24T18:11:29.538Z,94.70
2017-11-24T18:13:57.081Z,94.70
2017-11-24T18:16:24.930Z,94.60
2017-11-24T18:18:52.563Z,94.70
2017-11-24T18:21:20.642Z,94.70
2017-11-24T18:23:48.192Z,94.80
2017-11-24T18:26:15.675Z,94.70
2017-11-24T18:28:43.435Z,94.60
2017-11-24T18:31:10.973Z,94.60
2017-11-24T18:33:39.134Z,94.60
2017-11-24T18:36:08.260Z,94.50
2017-11-24T18:38:35.869Z,94.50
2017-11-24T18:41:03.397Z,94.50
2017-11-24T18:43:30.925Z,94.40
2017-11-24T18:45:58.442Z,94.30
2017-11-24T18:48:26.398Z,94.30
2017-11-24T18:50:54.963Z,94.10
2017-11-24T18:53:22.486Z,94.10
2017-11-24T18:55:50.067Z,94.10
2017-11-24T18:58:17.761Z,94.10
2017-11-24T19:00:45.258Z,94.30
2017-11-24T19:03:12.928Z,94.50
2017-11-24T19:05:40.436Z,94.60
2017-11-24T19:08:07.925Z,94.60
2017-11-24T19:10:35.493Z,94.60
2017-11-24T19:13:03.060Z,94.80
2017-11-24T19:15:30.690Z,94.80
2017-11-24T19:17:58.174Z,94.70
2017-11-24T19:20:25.858Z,94.80
2017-11-24T19:22:53.404Z,94.90
2017-11-24T19:25:20.893Z,94.80
2017-11-24T19:27:48.512Z,94.80
2017-11-24T19:30:16.009Z,94.80
2017-11-24T19:32:43.611Z,94.80
2017-11-24T19:35:11.887Z,94.60
2017-11-24T19:37:40.194Z,94.60
2017-11-24T19:40:07.710Z,94.60
2017-11-24T19:42:35.249Z,94.50
2017-11-24T19:45:02.885Z,94.80
2017-11-24T19:47:30.429Z,94.80
2017-11-24T19:49:57.921Z,94.50
2017-11-24T19:52:25.528Z,94.80
2017-11-24T19:54:53.120Z,94.50
2017-11-24T19:57:20.650Z,94.30
2017-11-24T19:59:49.009Z,94.40
2017-11-24T20:02:17.391Z,94.30
2017-11-24T20:04:45.780Z,94.30
2017-11-24T20:07:19.220Z,94.30
2017-11-24T20:09:46.892Z,94.00
2017-11-24T20:12:14.383Z,94.00
2017-11-24T20:14:41.898Z,94.10
2017-11-24T20:17:09.662Z,94.20
2017-11-24T20:19:37.180Z,94.50
2017-11-24T20:22:05.438Z,94.80
2017-11-24T20:24:33.827Z,94.70
2017-11-24T20:27:02.093Z,95.00
2017-11-24T20:29:30.474Z,94.70
2017-11-24T20:31:58.740Z,94.80
2017-11-24T20:34:26.203Z,94.80
2017-11-24T20:36:54.471Z,95.00
2017-11-24T20:39:22.924Z,94.70
2017-11-24T20:41:50.415Z,94.70
2017-11-24T20:44:17.874Z,94.80
2017-11-24T20:46:46.225Z,94.70
2017-11-24T20:49:13.729Z,94.70
2017-11-24T20:51:41.988Z,94.70
2017-11-24T20:54:10.222Z,94.60
2017-11-24T20:56:37.716Z,94.60
2017-11-24T20:59:05.972Z,94.60
2017-11-24T21:01:33.455Z,94.60
2017-11-24T21:04:01.818Z,94.50
2017-11-24T21:06:29.279Z,94.50
2017-11-24T21:08:57.552Z,94.70
2017-11-24T21:11:25.012Z,94.60
2017-11-24T21:13:53.282Z,94.70
2017-11-24T21:16:20.758Z,94.70
2017-11-24T21:18:49.012Z,94.90
2017-11-24T21:21:16.514Z,94.90
2017-11-24T21:23:44.133Z,95.00
2017-11-24T21:26:11.627Z,95.00
2017-11-24T21:28:39.115Z,95.30
2017-11-24T21:31:06.617Z,95.00
2017-11-24T21:33:34.855Z,95.00
2017-11-24T21:36:02.337Z,95.00
2017-11-24T21:38:29.802Z,94.80
2017-11-24T21:40:58.129Z,94.90
2017-11-24T21:43:25.743Z,94.90
2017-11-24T21:45:53.301Z,95.00
2017-11-24T21:48:20.851Z,94.90
2017-11-24T21:50:50.864Z,95.00
2017-11-24T21:53:19.191Z,95.10
2017-11-24T21:55:46.755Z,95.10
2017-11-24T21:58:14.235Z,95.00
2017-11-24T22:00:41.720Z,95.00
2017-11-24T22:03:09.202Z,95.00
2017-11-24T22:05:36.860Z,95.00
2017-11-24T22:08:05.120Z,95.10
2017-11-24T22:10:33.860Z,95.20
2017-11-24T22:13:01.352Z,95.10
2017-11-24T22:15:29.662Z,95.60
2017-11-24T22:17:57.152Z,95.20
2017-11-24T22:20:24.661Z,95.20
2017-11-24T22:22:52.921Z,95.00
2017-11-24T22:25:21.196Z,95.20
2017-11-24T22:27:48.660Z,95.10
2017-11-24T22:30:19.267Z,95.40
2017-11-24T22:32:46.834Z,95.20
2017-11-24T22:35:14.371Z,95.10
2017-11-24T22:37:41.847Z,95.10
2017-11-24T22:40:09.352Z,95.50
2017-11-24T22:42:36.832Z,95.50
2017-11-24T22:45:05.282Z,95.40
2017-11-24T22:47:32.772Z,95.70
2017-11-24T22:50:00.275Z,95.40
2017-11-24T22:52:27.732Z,95.40
2017-11-24T22:54:56.001Z,95.60
2017-11-24T22:57:23.466Z,95.80
2017-11-24T22:59:51.722Z,96.20
2017-11-24T23:02:19.342Z,96.20
2017-11-24T23:04:46.867Z,96.30
2017-11-24T23:07:15.126Z,96.10
2017-11-24T23:09:42.845Z,96.10
2017-11-24T23:12:10.306Z,96.00
2017-11-24T23:14:37.809Z,95.90
2017-11-24T23:17:05.283Z,96.10
2017-11-24T23:19:33.509Z,96.40
2017-11-24T23:22:01.051Z,96.40
2017-11-24T23:24:28.525Z,96.60
2017-11-24T23:26:56.013Z,96.60
2017-11-24T23:29:24.290Z,96.70
2017-11-24T23:31:52.515Z,96.60
2017-11-24T23:34:20.738Z,96.60
2017-11-24T23:36:48.982Z,96.50
2017-11-24T23:39:16.454Z,96.40
2017-11-24T23:41:43.976Z,96.30
2017-11-24T23:44:11.451Z,96.30
2017-11-24T23:46:38.908Z,96.30
2017-11-24T23:49:06.404Z,96.20
2017-11-24T23:51:33.949Z,96.30
2017-11-24T23:54:01.433Z,96.20
2017-11-24T23:56:29.648Z,96.50
2017-11-24T23:58:57.833Z,96.50
